createdAt,value
2018-03-03T00:02:01.417Z,84.88
2018-03-03T00:04:29.752Z,84.86
2018-03-03T00:06:58.092Z,85.10
2018-03-03T00:09:26.637Z,85.75
2018-03-03T00:11:54.972Z,85.94
2018-03-03T00:14:23.337Z,86.35
2018-03-03T00:16:51.668Z,86.75
2018-03-03T00:19:20.380Z,86.89
2018-03-03T00:21:49.491Z,87.01
2018-03-03T00:24:18.364Z,87.13
2018-03-03T00:26:46.717Z,87.04
2018-03-03T00:29:15.049Z,87.32
2018-03-03T00:31:43.456Z,87.25
2018-03-03T00:34:11.783Z,87.47
2018-03-03T00:36:40.773Z,87.55
2018-03-03T00:39:09.107Z,87.85
2018-03-03T00:41:37.455Z,88.11
2018-03-03T00:44:05.807Z,88.47
2018-03-03T00:46:34.140Z,89.59
2018-03-03T00:49:02.501Z,90.20
2018-03-03T00:51:31.409Z,90.05
2018-03-03T00:53:59.793Z,89.85
2018-03-03T00:56:28.119Z,89.85
2018-03-03T00:58:57.207Z,89.92
2018-03-03T01:01:26.324Z,90.26
2018-03-03T01:03:55.419Z,90.67
2018-03-03T01:06:24.552Z,90.67
2018-03-03T01:08:53.002Z,90.62
2018-03-03T01:11:21.343Z,90.52
2018-03-03T01:13:49.892Z,90.63
2018-03-03T01:16:18.224Z,91.50
2018-03-03T01:18:47.396Z,91.49
2018-03-03T01:21:15.834Z,91.31
2018-03-03T01:23:44.173Z,91.18
2018-03-03T01:26:12.520Z,91.13
2018-03-03T01:28:40.992Z,91.45
2018-03-03T01:31:09.799Z,91.59
2018-03-03T01:33:38.125Z,91.46
2018-03-03T01:36:07.115Z,91.24
2018-03-03T01:38:35.469Z,91.34
2018-03-03T01:41:03.942Z,92.16
2018-03-03T01:43:32.350Z,92.88
2018-03-03T01:46:01.116Z,93.46
2018-03-03T01:48:29.457Z,93.72
2018-03-03T01:50:57.805Z,93.41
2018-03-03T01:53:26.213Z,92.86
2018-03-03T01:55:54.550Z,92.40
2018-03-03T01:58:23.752Z,92.55
2018-03-03T02:00:52.088Z,92.23
2018-03-03T02:03:20.408Z,92.14
2018-03-03T02:05:48.768Z,91.91
2018-03-03T02:08:17.092Z,91.71
2018-03-03T02:10:45.452Z,91.77
2018-03-03T02:13:13.772Z,92.02
2018-03-03T02:15:42.271Z,91.93
2018-03-03T02:18:10.623Z,91.87
2018-03-03T02:20:38.955Z,91.80
2018-03-03T02:23:08.096Z,92.00
2018-03-03T02:25:36.429Z,91.84
2018-03-03T02:28:04.765Z,91.81
2018-03-03T02:30:33.141Z,91.68
2018-03-03T02:33:02.442Z,91.95
2018-03-03T02:35:30.796Z,91.83
2018-03-03T02:37:59.189Z,92.05
2018-03-03T02:40:27.534Z,92.65
2018-03-03T02:42:55.867Z,92.91
2018-03-03T02:45:24.229Z,92.81
2018-03-03T02:47:52.556Z,93.08
2018-03-03T02:50:20.903Z,93.15
2018-03-03T02:52:49.248Z,93.25
2018-03-03T02:55:17.573Z,93.47
2018-03-03T02:57:45.929Z,93.60
2018-03-03T03:00:14.277Z,93.30
2018-03-03T03:02:42.711Z,92.92
2018-03-03T03:05:11.851Z,93.06
2018-03-03T03:07:40.180Z,92.99
2018-03-03T03:10:08.523Z,93.11
2018-03-03T03:12:36.852Z,92.99
2018-03-03T03:15:05.978Z,92.52
2018-03-03T03:17:34.516Z,92.41
2018-03-03T03:20:02.845Z,92.31
2018-03-03T03:22:31.172Z,92.15
2018-03-03T03:25:02.427Z,91.90
2018-03-03T03:27:31.057Z,91.85
2018-03-03T03:29:59.801Z,91.66
2018-03-03T03:32:28.156Z,91.78
2018-03-03T03:34:56.539Z,91.84
2018-03-03T03:37:24.880Z,92.63
2018-03-03T03:39:53.351Z,93.55
2018-03-03T03:42:22.062Z,93.71
2018-03-03T03:44:50.424Z,93.33
2018-03-03T03:47:18.801Z,92.73
2018-03-03T03:49:47.132Z,92.46
2018-03-03T03:52:16.490Z,92.09
2018-03-03T03:54:44.913Z,91.97
2018-03-03T03:57:13.256Z,91.77
2018-03-03T03:59:41.583Z,91.66
2018-03-03T04:02:13.943Z,91.88
2018-03-03T04:04:42.313Z,91.99
2018-03-03T04:07:11.413Z,91.95
2018-03-03T04:09:40.256Z,92.01
2018-03-03T04:12:08.585Z,91.92
2018-03-03T04:14:37.673Z,91.82
2018-03-03T04:17:06.243Z,91.80
2018-03-03T04:19:34.593Z,91.72
2018-03-03T04:22:02.920Z,92.02
2018-03-03T04:24:32.059Z,92.12
2018-03-03T04:27:01.152Z,92.33
2018-03-03T04:29:29.487Z,92.26
2018-03-03T04:31:57.844Z,92.05
2018-03-03T04:34:26.177Z,92.29
2018-03-03T04:36:54.551Z,93.08
2018-03-03T04:39:22.873Z,93.37
2018-03-03T04:41:51.192Z,93.10
2018-03-03T04:44:20.381Z,92.58
2018-03-03T04:46:48.724Z,92.28
2018-03-03T04:49:17.100Z,92.47
2018-03-03T04:51:45.431Z,92.39
2018-03-03T04:54:13.768Z,92.34
2018-03-03T04:56:42.224Z,92.21
2018-03-03T04:59:26.348Z,92.16
2018-03-03T05:02:00.052Z,91.92
2018-03-03T05:04:46.924Z,91.65
2018-03-03T05:20:48.376Z,92.07
2018-03-03T05:23:21.072Z,92.35
2018-03-03T05:39:20.944Z,94.18
2018-03-03T05:55:23.604Z,92.77
2018-03-03T06:11:24.375Z,92.26
2018-03-03T06:13:52.745Z,92.31
2018-03-03T06:16:21.488Z,92.37
2018-03-03T06:18:49.888Z,92.44
2018-03-03T06:21:18.231Z,92.40
2018-03-03T06:23:46.599Z,92.44
2018-03-03T06:26:14.941Z,92.57
2018-03-03T06:28:43.295Z,92.55
2018-03-03T06:31:11.633Z,92.61
2018-03-03T06:33:40.000Z,92.52
2018-03-03T06:36:08.320Z,92.44
2018-03-03T06:38:36.648Z,92.42
2018-03-03T06:41:05.000Z,92.32
2018-03-03T06:43:33.395Z,92.25
2018-03-03T06:46:01.761Z,91.83
2018-03-03T06:48:30.399Z,91.75
2018-03-03T06:50:58.719Z,91.91
2018-03-03T06:53:27.104Z,92.20
2018-03-03T06:55:56.196Z,92.58
2018-03-03T06:58:25.284Z,92.66
2018-03-03T07:00:54.083Z,92.95
2018-03-03T07:03:22.428Z,93.62
2018-03-03T07:05:50.758Z,94.74
2018-03-03T07:08:19.124Z,94.90
2018-03-03T07:10:47.451Z,94.48
2018-03-03T07:13:15.792Z,93.73
2018-03-03T07:15:44.151Z,92.75
2018-03-03T07:18:12.827Z,91.68
2018-03-03T07:20:41.204Z,91.98
2018-03-03T07:23:09.541Z,91.04
2018-03-03T07:25:37.905Z,89.75
2018-03-03T07:28:06.232Z,89.34
2018-03-03T07:30:35.211Z,89.83
2018-03-03T07:33:03.536Z,89.51
2018-03-03T07:35:31.916Z,89.82
2018-03-03T07:38:00.249Z,88.58
2018-03-03T07:40:29.052Z,88.47
2018-03-03T07:42:57.383Z,88.22
2018-03-03T07:45:25.751Z,88.02
2018-03-03T07:47:54.140Z,90.07
2018-03-03T07:50:22.468Z,90.32
2018-03-03T07:52:51.108Z,86.30
2018-03-03T07:55:19.480Z,82.05
2018-03-03T07:57:47.796Z,74.53
2018-03-03T08:00:16.113Z,76.59
2018-03-03T08:02:44.571Z,68.53
2018-03-03T08:05:12.880Z,67.57
2018-03-03T08:07:41.303Z,63.35
2018-03-03T08:10:09.612Z,66.64
2018-03-03T08:12:37.418Z,57.89
2018-03-03T08:15:05.729Z,55.13
2018-03-03T08:17:34.049Z,57.29
2018-03-03T08:20:02.409Z,54.74
2018-03-03T08:22:31.289Z,48.34
2018-03-03T08:24:59.628Z,45.44
2018-03-03T08:27:28.694Z,42.17
2018-03-03T08:29:57.017Z,39.97
2018-03-03T08:32:25.328Z,41.21
2018-03-03T08:34:53.684Z,40.97
2018-03-03T08:37:22.000Z,38.83
2018-03-03T08:39:50.869Z,38.32
2018-03-03T08:42:19.237Z,39.02
2018-03-03T08:44:48.295Z,37.42
2018-03-03T08:47:16.612Z,34.11
2018-03-03T08:49:45.357Z,33.71
2018-03-03T08:52:13.671Z,36.11
2018-03-03T08:54:41.996Z,35.89
2018-03-03T08:57:10.821Z,39.84
2018-03-03T08:59:39.920Z,46.66
2018-03-03T09:02:08.228Z,51.57
2018-03-03T09:04:36.644Z,54.67
2018-03-03T09:07:05.705Z,62.09
2018-03-03T09:09:34.279Z,63.38
2018-03-03T09:12:02.592Z,64.65
2018-03-03T09:14:32.467Z,67.40
2018-03-03T09:17:00.905Z,67.87
2018-03-03T09:19:29.223Z,61.79
2018-03-03T09:21:57.552Z,50.92
2018-03-03T09:24:25.865Z,46.62
2018-03-03T09:26:54.688Z,38.96
2018-03-03T09:29:23.005Z,32.77
2018-03-03T09:31:51.311Z,31.37
2018-03-03T09:34:19.653Z,29.44
2018-03-03T09:36:47.972Z,29.18
2018-03-03T09:39:16.636Z,29.42
2018-03-03T09:41:44.958Z,27.07
2018-03-03T09:44:13.280Z,27.58
2018-03-03T09:46:41.629Z,28.78
2018-03-03T09:49:10.732Z,29.37
2018-03-03T09:51:39.072Z,27.65
2018-03-03T09:54:07.396Z,24.47
2018-03-03T09:56:35.776Z,23.84
2018-03-03T09:59:04.087Z,23.48
2018-03-03T10:01:32.417Z,22.96
2018-03-03T10:04:00.767Z,22.03
2018-03-03T10:06:29.084Z,20.91
2018-03-03T10:08:57.400Z,20.47
2018-03-03T10:11:25.848Z,20.72
2018-03-03T10:13:54.572Z,21.37
2018-03-03T10:16:23.512Z,24.52
2018-03-03T10:18:51.821Z,25.29
2018-03-03T10:21:20.849Z,25.74
2018-03-03T10:23:49.279Z,23.81
2018-03-03T10:26:18.234Z,22.13
2018-03-03T10:28:47.320Z,21.15
2018-03-03T10:31:15.780Z,24.91
2018-03-03T10:33:44.692Z,23.87
2018-03-03T10:36:13.049Z,28.48
2018-03-03T10:38:41.367Z,29.01
2018-03-03T10:41:10.520Z,26.40
2018-03-03T10:43:38.853Z,22.30
2018-03-03T10:46:07.543Z,23.48
2018-03-03T10:48:35.876Z,24.07
2018-03-03T10:51:04.961Z,20.45
2018-03-03T10:53:33.281Z,18.32
2018-03-03T10:56:02.460Z,18.88
2018-03-03T10:58:30.818Z,21.19
2018-03-03T11:01:00.114Z,20.87
2018-03-03T11:03:28.503Z,20.24
2018-03-03T11:05:56.828Z,19.55
2018-03-03T11:08:26.238Z,19.05
2018-03-03T11:10:56.224Z,21.24
2018-03-03T11:13:24.554Z,20.67
2018-03-03T11:15:52.904Z,21.73
2018-03-03T11:18:21.353Z,19.25
2018-03-03T11:20:49.495Z,19.20
2018-03-03T11:23:17.843Z,20.40
2018-03-03T11:25:46.165Z,20.78
2018-03-03T11:28:14.528Z,18.86
2018-03-03T11:30:42.844Z,18.21
2018-03-03T11:33:11.728Z,18.49
2018-03-03T11:35:40.083Z,24.87
2018-03-03T11:38:08.396Z,27.59
2018-03-03T11:40:37.677Z,25.09
2018-03-03T11:43:05.960Z,23.98
2018-03-03T11:45:34.460Z,24.56
2018-03-03T11:48:03.673Z,22.89
2018-03-03T11:50:32.004Z,25.22
2018-03-03T11:53:01.013Z,23.84
2018-03-03T11:55:29.664Z,27.22
2018-03-03T11:57:58.018Z,27.45
2018-03-03T12:00:26.397Z,30.37
2018-03-03T12:02:54.656Z,27.15
2018-03-03T12:05:24.391Z,25.09
2018-03-03T12:07:52.707Z,24.20
2018-03-03T12:10:21.092Z,24.47
2018-03-03T12:12:49.775Z,27.67
2018-03-03T12:15:17.896Z,27.62
2018-03-03T12:17:46.191Z,28.07
2018-03-03T12:20:16.080Z,26.97
2018-03-03T12:22:44.896Z,28.58
2018-03-03T12:25:13.785Z,26.31
2018-03-03T12:27:42.374Z,27.88
2018-03-03T12:30:11.189Z,30.76
2018-03-03T12:32:39.529Z,33.73
2018-03-03T12:35:07.988Z,32.99
2018-03-03T12:37:37.078Z,39.77
2018-03-03T12:40:06.796Z,42.47
2018-03-03T12:42:35.949Z,45.86
2018-03-03T12:45:04.916Z,47.99
2018-03-03T12:47:33.505Z,48.26
2018-03-03T12:50:02.140Z,47.51
2018-03-03T12:52:30.535Z,47.82
2018-03-03T12:54:58.896Z,50.20
2018-03-03T12:57:27.273Z,48.42
2018-03-03T12:59:55.595Z,49.03
2018-03-03T13:02:24.438Z,49.87
2018-03-03T13:04:52.765Z,50.39
2018-03-03T13:07:21.072Z,49.16
2018-03-03T13:09:49.563Z,49.06
2018-03-03T13:12:17.936Z,48.86
2018-03-03T13:14:46.308Z,50.36
2018-03-03T13:17:15.350Z,49.93
2018-03-03T13:19:43.716Z,49.52
2018-03-03T13:22:12.209Z,49.39
2018-03-03T13:24:40.488Z,50.35
2018-03-03T13:27:08.627Z,49.16
2018-03-03T13:29:36.932Z,46.84
2018-03-03T13:32:05.271Z,48.00
2018-03-03T13:34:33.615Z,48.42
2018-03-03T13:37:02.140Z,49.83
2018-03-03T13:39:30.551Z,47.70
2018-03-03T13:41:58.911Z,47.62
2018-03-03T13:44:27.036Z,48.21
2018-03-03T13:46:55.353Z,45.98
2018-03-03T13:49:23.664Z,46.14
2018-03-03T13:51:52.032Z,46.44
2018-03-03T13:54:20.539Z,46.39
2018-03-03T13:56:49.078Z,46.32
2018-03-03T13:59:17.941Z,47.98
2018-03-03T14:01:47.546Z,47.00
2018-03-03T14:04:16.078Z,46.49
2018-03-03T14:06:44.551Z,45.33
2018-03-03T14:09:12.939Z,45.71
2018-03-03T14:11:41.556Z,46.05
2018-03-03T14:14:10.197Z,45.41
2018-03-03T14:16:38.740Z,44.95
2018-03-03T14:19:08.382Z,44.74
2018-03-03T14:21:37.038Z,44.69
2018-03-03T14:24:05.494Z,42.97
2018-03-03T14:26:34.104Z,41.05
2018-03-03T14:29:04.352Z,40.68
2018-03-03T14:31:33.951Z,40.90
2018-03-03T14:34:03.341Z,41.16
2018-03-03T14:36:32.361Z,40.20
2018-03-03T14:39:01.246Z,39.37
2018-03-03T14:41:30.500Z,39.29
2018-03-03T14:43:59.666Z,40.23
2018-03-03T14:46:28.262Z,41.77
2018-03-03T14:48:57.594Z,41.96
2018-03-03T14:51:26.671Z,42.72
2018-03-03T14:53:55.157Z,41.91
2018-03-03T14:56:23.912Z,41.15
2018-03-03T14:58:52.994Z,41.50
2018-03-03T15:01:22.231Z,42.24
2018-03-03T15:03:51.237Z,43.74
2018-03-03T15:06:20.857Z,42.55
2018-03-03T15:08:51.168Z,42.62
2018-03-03T15:11:21.896Z,43.21
2018-03-03T15:13:51.709Z,41.66
2018-03-03T15:16:21.730Z,42.26
2018-03-03T15:18:50.457Z,42.54
2018-03-03T15:21:19.037Z,41.82
2018-03-03T15:23:47.869Z,42.48
2018-03-03T15:26:18.106Z,42.31
2018-03-03T15:28:47.019Z,43.54
2018-03-03T15:31:16.303Z,44.27
2018-03-03T15:33:44.779Z,45.11
2018-03-03T15:36:12.952Z,45.51
2018-03-03T15:38:41.251Z,45.95
2018-03-03T15:41:09.607Z,46.21
2018-03-03T15:43:37.916Z,47.56
2018-03-03T15:46:07.003Z,47.65
2018-03-03T15:48:36.020Z,47.43
2018-03-03T15:51:04.336Z,47.34
2018-03-03T15:53:32.651Z,49.16
2018-03-03T15:56:01.012Z,47.83
2018-03-03T15:58:30.508Z,47.43
2018-03-03T16:00:58.908Z,47.59
2018-03-03T16:03:27.981Z,47.97
2018-03-03T16:05:56.720Z,48.63
2018-03-03T16:08:25.400Z,48.49
2018-03-03T16:10:53.704Z,48.56
2018-03-03T16:13:22.789Z,48.75
2018-03-03T16:15:53.625Z,49.26
2018-03-03T16:18:21.948Z,48.98
2018-03-03T16:20:50.291Z,49.62
2018-03-03T16:23:18.437Z,49.71
2018-03-03T16:25:46.819Z,50.07
2018-03-03T16:28:15.181Z,49.41
2018-03-03T16:30:44.058Z,49.83
2018-03-03T16:33:12.644Z,50.24
2018-03-03T16:35:41.464Z,50.74
2018-03-03T16:38:09.808Z,51.24
2018-03-03T16:40:38.112Z,51.14
2018-03-03T16:43:06.419Z,51.56
2018-03-03T16:45:35.287Z,51.55
2018-03-03T16:48:04.373Z,51.62
2018-03-03T16:50:32.814Z,51.99
2018-03-03T16:53:01.117Z,52.21
2018-03-03T16:55:29.931Z,52.74
2018-03-03T16:57:59.127Z,52.71
2018-03-03T17:00:33.259Z,52.42
2018-03-03T17:03:01.787Z,53.39
2018-03-03T17:05:30.620Z,53.98
2018-03-03T17:07:59.104Z,54.05
2018-03-03T17:10:27.458Z,53.80
2018-03-03T17:12:55.768Z,54.75
2018-03-03T17:15:25.575Z,55.90
2018-03-03T17:17:53.941Z,57.85
2018-03-03T17:20:22.268Z,56.72
2018-03-03T17:22:50.576Z,57.30
2018-03-03T17:25:19.335Z,58.10
2018-03-03T17:27:47.652Z,59.07
2018-03-03T17:30:15.973Z,63.03
2018-03-03T17:32:44.307Z,61.75
2018-03-03T17:35:13.152Z,62.20
2018-03-03T17:37:41.742Z,62.68
2018-03-03T17:40:10.059Z,64.75
2018-03-03T17:42:38.746Z,65.39
2018-03-03T17:45:07.280Z,66.21
2018-03-03T17:47:35.727Z,67.87
2018-03-03T17:50:04.853Z,67.83
2018-03-03T17:52:33.237Z,68.87
2018-03-03T17:55:01.709Z,68.74
2018-03-03T17:57:30.077Z,69.50
2018-03-03T17:59:58.764Z,69.79
2018-03-03T18:02:27.621Z,70.28
2018-03-03T18:04:56.650Z,71.04
2018-03-03T18:07:25.463Z,71.12
2018-03-03T18:09:54.199Z,71.59
2018-03-03T18:12:22.513Z,71.72
2018-03-03T18:14:50.926Z,72.74
2018-03-03T18:17:19.252Z,72.18
2018-03-03T18:19:47.904Z,73.16
2018-03-03T18:22:16.279Z,72.91
2018-03-03T18:24:45.326Z,72.96
2018-03-03T18:27:13.676Z,73.00
2018-03-03T18:29:42.662Z,72.66
2018-03-03T18:32:11.348Z,72.04
2018-03-03T18:34:39.757Z,72.11
2018-03-03T18:37:08.112Z,72.74
2018-03-03T18:39:37.458Z,72.38
2018-03-03T18:42:05.763Z,72.04
2018-03-03T18:44:34.812Z,72.04
2018-03-03T18:47:03.149Z,71.80
2018-03-03T18:49:31.457Z,72.33
2018-03-03T18:52:00.754Z,72.28
2018-03-03T18:54:29.602Z,73.41
2018-03-03T18:56:58.000Z,73.44
2018-03-03T18:59:26.312Z,74.14
2018-03-03T19:01:54.616Z,75.23
2018-03-03T19:04:22.972Z,75.56
2018-03-03T19:06:51.285Z,75.91
2018-03-03T19:09:19.592Z,77.24
2018-03-03T19:11:47.936Z,78.00
2018-03-03T19:14:16.008Z,78.05
2018-03-03T19:16:44.317Z,79.06
2018-03-03T19:19:12.577Z,79.00
2018-03-03T19:21:40.964Z,79.46
2018-03-03T19:24:09.216Z,78.73
2018-03-03T19:26:38.148Z,80.18
2018-03-03T19:29:06.280Z,80.05
2018-03-03T19:31:34.762Z,80.13
2018-03-03T19:34:03.088Z,80.50
2018-03-03T19:36:31.399Z,80.94
2018-03-03T19:38:59.836Z,81.61
2018-03-03T19:41:28.913Z,82.21
2018-03-03T19:43:57.173Z,82.41
2018-03-03T19:46:26.155Z,83.30
2018-03-03T19:48:54.811Z,83.91
2018-03-03T19:51:23.503Z,84.54
2018-03-03T19:53:52.032Z,84.95
2018-03-03T19:56:20.353Z,85.02
2018-03-03T19:58:48.924Z,85.41
2018-03-03T20:01:18.176Z,85.40
2018-03-03T20:03:47.044Z,84.94
2018-03-03T20:06:16.303Z,85.67
2018-03-03T20:08:44.661Z,85.39
2018-03-03T20:11:13.095Z,84.78
2018-03-03T20:13:41.524Z,84.99
2018-03-03T20:16:09.846Z,84.78
2018-03-03T20:18:38.198Z,84.68
2018-03-03T20:21:06.656Z,84.37
2018-03-03T20:23:34.993Z,86.25
2018-03-03T20:26:03.321Z,85.49
2018-03-03T20:28:32.336Z,84.86
2018-03-03T20:31:00.657Z,85.61
2018-03-03T20:33:28.988Z,85.21
2018-03-03T20:35:57.361Z,85.54
2018-03-03T20:38:26.358Z,85.00
2018-03-03T20:40:54.674Z,84.35
2018-03-03T20:43:23.060Z,83.74
2018-03-03T20:45:51.360Z,84.11
2018-03-03T20:48:19.676Z,84.72
2018-03-03T20:50:48.860Z,84.61
2018-03-03T20:53:17.824Z,84.82
2018-03-03T20:55:46.131Z,84.99
2018-03-03T20:58:14.444Z,84.68
2018-03-03T21:00:43.333Z,84.75
2018-03-03T21:03:13.132Z,84.79
2018-03-03T21:05:42.489Z,85.07
2018-03-03T21:08:11.122Z,85.36
2018-03-03T21:10:39.880Z,84.95
2018-03-03T21:13:08.189Z,84.61
2018-03-03T21:15:36.540Z,85.27
2018-03-03T21:18:05.445Z,85.31
2018-03-03T21:20:34.436Z,84.62
2018-03-03T21:23:02.744Z,84.89
2018-03-03T21:25:31.184Z,84.88
2018-03-03T21:27:59.516Z,84.77
2018-03-03T21:30:27.959Z,84.83
2018-03-03T21:32:56.324Z,85.48
2018-03-03T21:35:24.772Z,85.97
2018-03-03T21:37:53.885Z,87.28
2018-03-03T21:40:22.872Z,88.00
2018-03-03T21:42:51.193Z,86.79
2018-03-03T21:45:19.948Z,86.42
2018-03-03T21:47:48.252Z,86.57
2018-03-03T21:50:17.639Z,86.65
2018-03-03T21:52:46.224Z,86.93
2018-03-03T21:55:15.131Z,87.33
2018-03-03T21:57:44.416Z,87.46
2018-03-03T22:00:13.252Z,87.60
2018-03-03T22:02:42.502Z,87.80
2018-03-03T22:05:11.309Z,87.63
2018-03-03T22:07:40.396Z,87.61
2018-03-03T22:10:08.973Z,87.79
2018-03-03T22:12:37.969Z,87.86
2018-03-03T22:15:07.043Z,87.86
2018-03-03T22:17:36.265Z,87.74
2018-03-03T22:20:05.258Z,87.79
2018-03-03T22:22:35.272Z,87.63
2018-03-03T22:25:03.598Z,87.77
2018-03-03T22:27:33.092Z,87.56
2018-03-03T22:30:01.445Z,87.49
2018-03-03T22:32:29.937Z,87.51
2018-03-03T22:34:58.412Z,87.35
2018-03-03T22:37:27.356Z,87.13
2018-03-03T22:39:55.695Z,87.24
2018-03-03T22:42:24.012Z,87.71
2018-03-03T22:44:52.221Z,89.52
2018-03-03T22:47:21.544Z,90.35
2018-03-03T22:49:50.012Z,90.27
2018-03-03T22:52:18.577Z,89.88
2018-03-03T22:54:47.112Z,89.69
2018-03-03T22:57:15.948Z,89.64
2018-03-03T22:59:44.861Z,89.48
2018-03-03T23:02:14.398Z,89.70
2018-03-03T23:04:43.185Z,90.61
2018-03-03T23:07:11.492Z,90.84
2018-03-03T23:09:39.777Z,90.70
2018-03-03T23:12:08.093Z,89.83
2018-03-03T23:14:36.333Z,89.26
2018-03-03T23:17:04.939Z,89.24
2018-03-03T23:19:33.576Z,89.42
2018-03-03T23:22:02.111Z,89.49
2018-03-03T23:24:30.428Z,90.13
2018-03-03T23:26:58.733Z,92.50
2018-03-03T23:29:27.100Z,92.84
2018-03-03T23:31:55.548Z,93.86
2018-03-03T23:34:24.128Z,94.37
2018-03-03T23:36:52.438Z,94.40
2018-03-03T23:39:20.886Z,93.91
2018-03-03T23:41:49.206Z,93.43
2018-03-03T23:44:17.328Z,93.36
2018-03-03T23:46:45.444Z,93.07
2018-03-03T23:49:13.830Z,92.81
2018-03-03T23:51:42.260Z,93.39
2018-03-03T23:54:10.601Z,93.76
2018-03-03T23:56:39.416Z,93.79
2018-03-03T23:59:08.024Z,93.69
